Archival Weather

Snohomish County (Paine Fld)

Everett, Washington (KPAE)

Report from: Thursday, November 2, 2023 3:53 AM PDT
Current time: Monday, June 17, 2024 12:52 AM PDT

Current weather – Weather history – Daily summaries
Weather forecast

Present weatherLight rain, mist
Temperature11.7°C (53.1°F)
Dew point10.6°C (51.1°F)
Winds 6 kts (3.1 m/s, 6.9 mph) Vrb
Wind gusts 16 kts (8.2 m/s, 18.4 mph)
Winds variableWinds variable
Visibility2 mi. (3.2 km)
Clouds Few clouds 500 ft. (152 m)
Ceiling: Overcast 1,300 ft. (396 m)
Altimeter29.74 in.Hg (1007 mB)
Precipitiation0.02 in. (1 mm)
Relative humidity93 %
Density altitude-7 ft. (-2 m)
Sea-level pressure100.7 kPa (1007 mB, 29.74 in.Hg)
Remarks Fully automated report
System requires maintenance
Automated weather observing station with precipitation discriminator
Flight conditions Instrument Meteorological Conditions
Raw dataKPAE 021053Z AUTO VRB06G16KT 2SM -RA BR FEW005 OVC013 12/11 A2974 RMK AO2 SLP072 P0002 T01170106 $
An error has occurred. This application may no longer respond until reloaded. Reload 🗙